sensor_id;sensor_type;location;lat;lon;timestamp;P1;durP1;ratioP1;P2;durP2;ratioP2
65658;SDS011;60181;53.258;6.932;2022-12-10T00:03:36;10.30;;;5.70;;
65658;SDS011;60181;53.258;6.932;2022-12-10T00:08:04;10.30;;;5.70;;
65658;SDS011;60181;53.258;6.932;2022-12-10T00:12:32;10.70;;;5.50;;
65658;SDS011;60181;53.258;6.932;2022-12-10T00:17:00;10.70;;;5.50;;
65658;SDS011;60181;53.258;6.932;2022-12-10T00:21:31;10.70;;;5.50;;
65658;SDS011;60181;53.258;6.932;2022-12-10T00:26:00;12.50;;;6.40;;
65658;SDS011;60181;53.258;6.932;2022-12-10T00:30:24;12.50;;;6.40;;
65658;SDS011;60181;53.258;6.932;2022-12-10T00:34:52;14.10;;;6.80;;
65658;SDS011;60181;53.258;6.932;2022-12-10T00:39:20;14.10;;;6.80;;
65658;SDS011;60181;53.258;6.932;2022-12-10T00:43:48;12.30;;;6.10;;
65658;SDS011;60181;53.258;6.932;2022-12-10T00:48:16;12.30;;;6.10;;
65658;SDS011;60181;53.258;6.932;2022-12-10T00:52:44;16.80;;;7.00;;
65658;SDS011;60181;53.258;6.932;2022-12-10T00:57:12;16.80;;;7.00;;
65658;SDS011;60181;53.258;6.932;2022-12-10T01:01:41;13.00;;;6.80;;
65658;SDS011;60181;53.258;6.932;2022-12-10T01:06:12;13.00;;;6.80;;
65658;SDS011;60181;53.258;6.932;2022-12-10T01:10:36;13.00;;;6.80;;
65658;SDS011;60181;53.258;6.932;2022-12-10T01:15:04;14.00;;;6.90;;
65658;SDS011;60181;53.258;6.932;2022-12-10T01:19:32;14.00;;;6.90;;
65658;SDS011;60181;53.258;6.932;2022-12-10T01:24:00;14.20;;;6.80;;
65658;SDS011;60181;53.258;6.932;2022-12-10T01:28:28;14.20;;;6.80;;
65658;SDS011;60181;53.258;6.932;2022-12-10T01:32:55;14.00;;;7.40;;
65658;SDS011;60181;53.258;6.932;2022-12-10T01:37:23;14.00;;;7.40;;
65658;SDS011;60181;53.258;6.932;2022-12-10T01:41:55;17.00;;;7.20;;
65658;SDS011;60181;53.258;6.932;2022-12-10T01:46:20;17.00;;;7.20;;
65658;SDS011;60181;53.258;6.932;2022-12-10T01:50:47;17.00;;;7.20;;
65658;SDS011;60181;53.258;6.932;2022-12-10T01:59:45;17.00;;;7.50;;
65658;SDS011;60181;53.258;6.932;2022-12-10T02:17:41;19.20;;;8.80;;
65658;SDS011;60181;53.258;6.932;2022-12-10T02:22:03;19.20;;;8.80;;
65658;SDS011;60181;53.258;6.932;2022-12-10T02:26:35;19.20;;;8.80;;
65658;SDS011;60181;53.258;6.932;2022-12-10T02:30:59;19.20;;;8.80;;
65658;SDS011;60181;53.258;6.932;2022-12-10T02:35:28;18.20;;;8.90;;
65658;SDS011;60181;53.258;6.932;2022-12-10T02:39:56;18.20;;;8.90;;
65658;SDS011;60181;53.258;6.932;2022-12-10T02:44:23;19.00;;;9.00;;
65658;SDS011;60181;53.258;6.932;2022-12-10T02:48:51;19.00;;;9.00;;
65658;SDS011;60181;53.258;6.932;2022-12-10T02:53:19;19.60;;;9.20;;
65658;SDS011;60181;53.258;6.932;2022-12-10T03:02:16;18.30;;;8.70;;
65658;SDS011;60181;53.258;6.932;2022-12-10T03:06:53;18.30;;;8.70;;
65658;SDS011;60181;53.258;6.932;2022-12-10T03:11:18;18.30;;;8.70;;
65658;SDS011;60181;53.258;6.932;2022-12-10T03:15:40;20.30;;;9.00;;
65658;SDS011;60181;53.258;6.932;2022-12-10T03:20:09;20.30;;;9.00;;
65658;SDS011;60181;53.258;6.932;2022-12-10T03:24:35;22.40;;;9.00;;
65658;SDS011;60181;53.258;6.932;2022-12-10T03:29:05;22.40;;;9.00;;
65658;SDS011;60181;53.258;6.932;2022-12-10T03:33:31;18.50;;;8.50;;
65658;SDS011;60181;53.258;6.932;2022-12-10T03:37:59;18.50;;;8.50;;
65658;SDS011;60181;53.258;6.932;2022-12-10T03:42:27;18.70;;;8.40;;
65658;SDS011;60181;53.258;6.932;2022-12-10T03:46:55;18.70;;;8.40;;
65658;SDS011;60181;53.258;6.932;2022-12-10T03:51:23;18.70;;;8.40;;
65658;SDS011;60181;53.258;6.932;2022-12-10T03:55:51;18.70;;;8.00;;
65658;SDS011;60181;53.258;6.932;2022-12-10T04:00:20;18.70;;;8.00;;
65658;SDS011;60181;53.258;6.932;2022-12-10T04:04:47;18.10;;;7.90;;
65658;SDS011;60181;53.258;6.932;2022-12-10T04:09:15;18.10;;;7.90;;
65658;SDS011;60181;53.258;6.932;2022-12-10T04:13:43;19.60;;;8.60;;
65658;SDS011;60181;53.258;6.932;2022-12-10T04:18:11;19.60;;;8.60;;
65658;SDS011;60181;53.258;6.932;2022-12-10T04:22:39;18.20;;;7.90;;
65658;SDS011;60181;53.258;6.932;2022-12-10T04:27:11;18.20;;;7.90;;
65658;SDS011;60181;53.258;6.932;2022-12-10T04:31:35;15.20;;;7.40;;
65658;SDS011;60181;53.258;6.932;2022-12-10T04:36:03;15.20;;;7.40;;
65658;SDS011;60181;53.258;6.932;2022-12-10T04:40:31;15.20;;;7.40;;
65658;SDS011;60181;53.258;6.932;2022-12-10T04:44:59;15.70;;;7.60;;
65658;SDS011;60181;53.258;6.932;2022-12-10T04:49:27;15.70;;;7.60;;
65658;SDS011;60181;53.258;6.932;2022-12-10T04:53:55;16.20;;;7.60;;
65658;SDS011;60181;53.258;6.932;2022-12-10T04:58:23;16.20;;;7.60;;
65658;SDS011;60181;53.258;6.932;2022-12-10T05:02:51;18.50;;;7.80;;
65658;SDS011;60181;53.258;6.932;2022-12-10T05:07:19;18.50;;;7.80;;
65658;SDS011;60181;53.258;6.932;2022-12-10T05:11:47;16.00;;;7.70;;
65658;SDS011;60181;53.258;6.932;2022-12-10T05:16:17;16.00;;;7.70;;
65658;SDS011;60181;53.258;6.932;2022-12-10T05:20:43;16.00;;;7.70;;
65658;SDS011;60181;53.258;6.932;2022-12-10T05:25:11;16.00;;;8.00;;
65658;SDS011;60181;53.258;6.932;2022-12-10T05:29:39;16.00;;;8.00;;
65658;SDS011;60181;53.258;6.932;2022-12-10T05:34:08;19.00;;;7.70;;
65658;SDS011;60181;53.258;6.932;2022-12-10T05:38:35;19.00;;;7.70;;
65658;SDS011;60181;53.258;6.932;2022-12-10T05:43:03;17.50;;;7.50;;
65658;SDS011;60181;53.258;6.932;2022-12-10T05:47:31;17.50;;;7.50;;
65658;SDS011;60181;53.258;6.932;2022-12-10T05:51:59;16.60;;;7.80;;
65658;SDS011;60181;53.258;6.932;2022-12-10T05:56:27;16.60;;;7.80;;
65658;SDS011;60181;53.258;6.932;2022-12-10T06:00:55;16.60;;;7.80;;
65658;SDS011;60181;53.258;6.932;2022-12-10T06:05:23;17.30;;;7.80;;
65658;SDS011;60181;53.258;6.932;2022-12-10T06:09:51;17.30;;;7.80;;
65658;SDS011;60181;53.258;6.932;2022-12-10T06:14:19;16.90;;;7.70;;
65658;SDS011;60181;53.258;6.932;2022-12-10T06:18:47;16.90;;;7.70;;
65658;SDS011;60181;53.258;6.932;2022-12-10T06:23:15;19.40;;;8.30;;
65658;SDS011;60181;53.258;6.932;2022-12-10T06:27:43;19.40;;;8.30;;
65658;SDS011;60181;53.258;6.932;2022-12-10T06:32:11;16.90;;;7.80;;
65658;SDS011;60181;53.258;6.932;2022-12-10T06:36:39;16.90;;;7.80;;
65658;SDS011;60181;53.258;6.932;2022-12-10T06:41:08;16.90;;;7.80;;
65658;SDS011;60181;53.258;6.932;2022-12-10T06:45:38;17.00;;;8.00;;
65658;SDS011;60181;53.258;6.932;2022-12-10T06:50:03;17.00;;;8.00;;
65658;SDS011;60181;53.258;6.932;2022-12-10T06:54:31;18.20;;;8.30;;
65658;SDS011;60181;53.258;6.932;2022-12-10T06:58:59;18.20;;;8.30;;
65658;SDS011;60181;53.258;6.932;2022-12-10T07:03:27;17.20;;;8.20;;
65658;SDS011;60181;53.258;6.932;2022-12-10T07:07:55;17.20;;;8.20;;
65658;SDS011;60181;53.258;6.932;2022-12-10T07:12:23;18.40;;;8.70;;
65658;SDS011;60181;53.258;6.932;2022-12-10T07:16:51;18.40;;;8.70;;
65658;SDS011;60181;53.258;6.932;2022-12-10T07:21:20;18.40;;;8.70;;
65658;SDS011;60181;53.258;6.932;2022-12-10T07:25:47;17.80;;;8.30;;
65658;SDS011;60181;53.258;6.932;2022-12-10T07:30:15;17.80;;;8.30;;
65658;SDS011;60181;53.258;6.932;2022-12-10T07:34:43;19.10;;;8.60;;
65658;SDS011;60181;53.258;6.932;2022-12-10T07:39:17;19.10;;;8.60;;
65658;SDS011;60181;53.258;6.932;2022-12-10T07:43:40;20.90;;;9.60;;
65658;SDS011;60181;53.258;6.932;2022-12-10T07:48:07;20.90;;;9.60;;
65658;SDS011;60181;53.258;6.932;2022-12-10T07:52:35;24.60;;;10.30;;
65658;SDS011;60181;53.258;6.932;2022-12-10T07:57:03;24.60;;;10.30;;
65658;SDS011;60181;53.258;6.932;2022-12-10T08:01:31;24.60;;;10.30;;
65658;SDS011;60181;53.258;6.932;2022-12-10T08:06:02;22.60;;;9.90;;
65658;SDS011;60181;53.258;6.932;2022-12-10T08:10:27;22.60;;;9.90;;
65658;SDS011;60181;53.258;6.932;2022-12-10T08:14:55;23.60;;;10.20;;
65658;SDS011;60181;53.258;6.932;2022-12-10T08:19:29;23.60;;;10.20;;
65658;SDS011;60181;53.258;6.932;2022-12-10T08:23:51;21.20;;;9.50;;
65658;SDS011;60181;53.258;6.932;2022-12-10T08:28:19;21.20;;;9.50;;
65658;SDS011;60181;53.258;6.932;2022-12-10T08:32:47;27.10;;;9.40;;
65658;SDS011;60181;53.258;6.932;2022-12-10T08:37:15;27.10;;;9.40;;
65658;SDS011;60181;53.258;6.932;2022-12-10T08:41:44;19.50;;;8.90;;
65658;SDS011;60181;53.258;6.932;2022-12-10T08:46:11;19.50;;;8.90;;
65658;SDS011;60181;53.258;6.932;2022-12-10T08:50:49;19.50;;;8.90;;
65658;SDS011;60181;53.258;6.932;2022-12-10T08:55:07;23.70;;;9.50;;
65658;SDS011;60181;53.258;6.932;2022-12-10T08:59:35;23.70;;;9.50;;
65658;SDS011;60181;53.258;6.932;2022-12-10T09:04:03;21.90;;;9.60;;
65658;SDS011;60181;53.258;6.932;2022-12-10T09:08:31;21.90;;;9.60;;
65658;SDS011;60181;53.258;6.932;2022-12-10T09:12:59;24.20;;;10.10;;
65658;SDS011;60181;53.258;6.932;2022-12-10T09:17:27;24.20;;;10.10;;
65658;SDS011;60181;53.258;6.932;2022-12-10T09:21:55;24.90;;;9.70;;
65658;SDS011;60181;53.258;6.932;2022-12-10T09:26:23;24.90;;;9.70;;
65658;SDS011;60181;53.258;6.932;2022-12-10T09:30:57;24.90;;;9.70;;
65658;SDS011;60181;53.258;6.932;2022-12-10T09:35:19;21.10;;;9.50;;
65658;SDS011;60181;53.258;6.932;2022-12-10T09:39:47;21.10;;;9.50;;
65658;SDS011;60181;53.258;6.932;2022-12-10T09:48:59;20.60;;;9.10;;
65658;SDS011;60181;53.258;6.932;2022-12-10T09:53:12;19.00;;;9.20;;
65658;SDS011;60181;53.258;6.932;2022-12-10T09:57:40;19.00;;;9.20;;
65658;SDS011;60181;53.258;6.932;2022-12-10T10:02:25;19.90;;;9.40;;
65658;SDS011;60181;53.258;6.932;2022-12-10T10:06:35;19.90;;;9.40;;
65658;SDS011;60181;53.258;6.932;2022-12-10T10:11:03;19.90;;;9.40;;
65658;SDS011;60181;53.258;6.932;2022-12-10T10:15:32;21.90;;;8.50;;
65658;SDS011;60181;53.258;6.932;2022-12-10T10:19:59;21.90;;;8.50;;
65658;SDS011;60181;53.258;6.932;2022-12-10T10:24:40;21.70;;;9.00;;
65658;SDS011;60181;53.258;6.932;2022-12-10T10:29:04;21.70;;;9.00;;
65658;SDS011;60181;53.258;6.932;2022-12-10T10:33:23;19.90;;;9.20;;
65658;SDS011;60181;53.258;6.932;2022-12-10T10:37:51;19.90;;;9.20;;
65658;SDS011;60181;53.258;6.932;2022-12-10T10:42:23;19.70;;;8.50;;
65658;SDS011;60181;53.258;6.932;2022-12-10T10:46:48;19.70;;;8.50;;
65658;SDS011;60181;53.258;6.932;2022-12-10T10:51:17;19.70;;;8.50;;
65658;SDS011;60181;53.258;6.932;2022-12-10T10:55:43;18.30;;;8.70;;
65658;SDS011;60181;53.258;6.932;2022-12-10T11:00:18;18.30;;;8.70;;
65658;SDS011;60181;53.258;6.932;2022-12-10T11:04:44;20.50;;;8.60;;
65658;SDS011;60181;53.258;6.932;2022-12-10T11:09:07;20.50;;;8.60;;
65658;SDS011;60181;53.258;6.932;2022-12-10T11:13:35;19.50;;;8.60;;
65658;SDS011;60181;53.258;6.932;2022-12-10T11:18:08;19.50;;;8.60;;
65658;SDS011;60181;53.258;6.932;2022-12-10T11:22:32;20.40;;;8.70;;
65658;SDS011;60181;53.258;6.932;2022-12-10T11:27:07;20.40;;;8.70;;
65658;SDS011;60181;53.258;6.932;2022-12-10T11:31:39;20.40;;;8.70;;
65658;SDS011;60181;53.258;6.932;2022-12-10T11:35:59;21.10;;;8.70;;
65658;SDS011;60181;53.258;6.932;2022-12-10T11:40:41;21.10;;;8.70;;
65658;SDS011;60181;53.258;6.932;2022-12-10T11:44:59;19.20;;;8.70;;
65658;SDS011;60181;53.258;6.932;2022-12-10T11:49:35;19.20;;;8.70;;
65658;SDS011;60181;53.258;6.932;2022-12-10T11:53:50;21.20;;;8.80;;
65658;SDS011;60181;53.258;6.932;2022-12-10T12:02:47;19.40;;;8.60;;
65658;SDS011;60181;53.258;6.932;2022-12-10T12:07:15;19.40;;;8.60;;
65658;SDS011;60181;53.258;6.932;2022-12-10T12:16:09;20.50;;;8.90;;
65658;SDS011;60181;53.258;6.932;2022-12-10T12:20:37;20.50;;;8.90;;
65658;SDS011;60181;53.258;6.932;2022-12-10T12:25:05;18.00;;;8.40;;
65658;SDS011;60181;53.258;6.932;2022-12-10T12:29:35;18.00;;;8.40;;
65658;SDS011;60181;53.258;6.932;2022-12-10T12:34:00;20.00;;;8.80;;
65658;SDS011;60181;53.258;6.932;2022-12-10T12:38:31;20.00;;;8.80;;
65658;SDS011;60181;53.258;6.932;2022-12-10T12:42:58;17.20;;;8.70;;
65658;SDS011;60181;53.258;6.932;2022-12-10T12:47:34;17.20;;;8.70;;
65658;SDS011;60181;53.258;6.932;2022-12-10T12:51:52;17.30;;;8.50;;
65658;SDS011;60181;53.258;6.932;2022-12-10T13:00:48;17.30;;;8.50;;
65658;SDS011;60181;53.258;6.932;2022-12-10T13:05:16;17.80;;;8.70;;
65658;SDS011;60181;53.258;6.932;2022-12-10T13:14:12;18.90;;;8.40;;
65658;SDS011;60181;53.258;6.932;2022-12-10T13:18:38;18.90;;;8.40;;
65658;SDS011;60181;53.258;6.932;2022-12-10T13:23:28;17.60;;;8.60;;
65658;SDS011;60181;53.258;6.932;2022-12-10T13:27:35;17.60;;;8.60;;
65658;SDS011;60181;53.258;6.932;2022-12-10T13:32:03;17.00;;;8.50;;
65658;SDS011;60181;53.258;6.932;2022-12-10T13:36:38;17.00;;;8.50;;
65658;SDS011;60181;53.258;6.932;2022-12-10T13:41:00;17.00;;;8.50;;
65658;SDS011;60181;53.258;6.932;2022-12-10T13:45:28;16.80;;;8.20;;
65658;SDS011;60181;53.258;6.932;2022-12-10T13:49:58;16.80;;;8.20;;
65658;SDS011;60181;53.258;6.932;2022-12-10T13:58:56;17.50;;;8.30;;
65658;SDS011;60181;53.258;6.932;2022-12-10T14:03:23;17.80;;;8.30;;
65658;SDS011;60181;53.258;6.932;2022-12-10T14:07:47;17.80;;;8.30;;
65658;SDS011;60181;53.258;6.932;2022-12-10T14:12:16;18.70;;;8.40;;
65658;SDS011;60181;53.258;6.932;2022-12-10T14:16:42;18.70;;;8.40;;
65658;SDS011;60181;53.258;6.932;2022-12-10T14:21:10;18.70;;;8.40;;
65658;SDS011;60181;53.258;6.932;2022-12-10T14:25:42;18.00;;;8.80;;
65658;SDS011;60181;53.258;6.932;2022-12-10T14:30:19;18.00;;;8.80;;
65658;SDS011;60181;53.258;6.932;2022-12-10T14:34:34;17.70;;;8.50;;
65658;SDS011;60181;53.258;6.932;2022-12-10T14:39:02;17.70;;;8.50;;
65658;SDS011;60181;53.258;6.932;2022-12-10T14:47:59;18.90;;;8.10;;
65658;SDS011;60181;53.258;6.932;2022-12-10T14:52:33;15.50;;;8.20;;
65658;SDS011;60181;53.258;6.932;2022-12-10T14:56:54;15.50;;;8.20;;
65658;SDS011;60181;53.258;6.932;2022-12-10T15:01:26;15.50;;;8.20;;
65658;SDS011;60181;53.258;6.932;2022-12-10T15:05:54;18.00;;;8.30;;
65658;SDS011;60181;53.258;6.932;2022-12-10T15:10:20;18.00;;;8.30;;
65658;SDS011;60181;53.258;6.932;2022-12-10T15:14:46;17.20;;;8.00;;
65658;SDS011;60181;53.258;6.932;2022-12-10T15:19:21;17.20;;;8.00;;
65658;SDS011;60181;53.258;6.932;2022-12-10T15:23:43;17.60;;;8.30;;
65658;SDS011;60181;53.258;6.932;2022-12-10T15:28:21;17.60;;;8.30;;
65658;SDS011;60181;53.258;6.932;2022-12-10T15:32:38;17.40;;;7.80;;
65658;SDS011;60181;53.258;6.932;2022-12-10T15:37:11;17.40;;;7.80;;
65658;SDS011;60181;53.258;6.932;2022-12-10T15:41:44;17.40;;;7.80;;
65658;SDS011;60181;53.258;6.932;2022-12-10T15:46:04;16.60;;;7.60;;
65658;SDS011;60181;53.258;6.932;2022-12-10T15:50:30;16.60;;;7.60;;
65658;SDS011;60181;53.258;6.932;2022-12-10T15:54:58;16.10;;;7.60;;
65658;SDS011;60181;53.258;6.932;2022-12-10T15:59:26;16.10;;;7.60;;
65658;SDS011;60181;53.258;6.932;2022-12-10T16:03:54;16.80;;;7.60;;
65658;SDS011;60181;53.258;6.932;2022-12-10T16:08:23;16.80;;;7.60;;
65658;SDS011;60181;53.258;6.932;2022-12-10T16:12:57;16.40;;;7.50;;
65658;SDS011;60181;53.258;6.932;2022-12-10T16:17:18;16.40;;;7.50;;
65658;SDS011;60181;53.258;6.932;2022-12-10T16:21:46;16.40;;;7.50;;
65658;SDS011;60181;53.258;6.932;2022-12-10T16:26:15;16.20;;;7.80;;
65658;SDS011;60181;53.258;6.932;2022-12-10T16:30:43;16.20;;;7.80;;
65658;SDS011;60181;53.258;6.932;2022-12-10T16:35:10;16.10;;;7.60;;
65658;SDS011;60181;53.258;6.932;2022-12-10T16:39:38;16.10;;;7.60;;
65658;SDS011;60181;53.258;6.932;2022-12-10T16:44:07;14.70;;;7.30;;
65658;SDS011;60181;53.258;6.932;2022-12-10T16:48:34;14.70;;;7.30;;
65658;SDS011;60181;53.258;6.932;2022-12-10T16:53:10;18.80;;;7.90;;
65658;SDS011;60181;53.258;6.932;2022-12-10T16:57:30;18.80;;;7.90;;
65658;SDS011;60181;53.258;6.932;2022-12-10T17:01:58;18.80;;;7.90;;
65658;SDS011;60181;53.258;6.932;2022-12-10T17:06:26;17.00;;;7.70;;
65658;SDS011;60181;53.258;6.932;2022-12-10T17:10:54;17.00;;;7.70;;
65658;SDS011;60181;53.258;6.932;2022-12-10T17:15:22;17.50;;;7.80;;
65658;SDS011;60181;53.258;6.932;2022-12-10T17:19:50;17.50;;;7.80;;
65658;SDS011;60181;53.258;6.932;2022-12-10T17:24:18;19.20;;;7.80;;
65658;SDS011;60181;53.258;6.932;2022-12-10T17:28:46;19.20;;;7.80;;
65658;SDS011;60181;53.258;6.932;2022-12-10T17:33:16;17.10;;;7.60;;
65658;SDS011;60181;53.258;6.932;2022-12-10T17:37:42;17.10;;;7.60;;
65658;SDS011;60181;53.258;6.932;2022-12-10T17:42:10;16.30;;;7.20;;
65658;SDS011;60181;53.258;6.932;2022-12-10T17:46:38;16.30;;;7.20;;
65658;SDS011;60181;53.258;6.932;2022-12-10T17:51:06;16.30;;;7.20;;
65658;SDS011;60181;53.258;6.932;2022-12-10T17:55:34;18.20;;;7.80;;
65658;SDS011;60181;53.258;6.932;2022-12-10T18:00:05;18.20;;;7.80;;
65658;SDS011;60181;53.258;6.932;2022-12-10T18:04:30;18.20;;;7.90;;
65658;SDS011;60181;53.258;6.932;2022-12-10T18:08:59;18.20;;;7.90;;
65658;SDS011;60181;53.258;6.932;2022-12-10T18:13:26;18.80;;;7.60;;
65658;SDS011;60181;53.258;6.932;2022-12-10T18:17:54;18.80;;;7.60;;
65658;SDS011;60181;53.258;6.932;2022-12-10T18:22:22;19.00;;;7.80;;
65658;SDS011;60181;53.258;6.932;2022-12-10T18:26:50;19.00;;;7.80;;
65658;SDS011;60181;53.258;6.932;2022-12-10T18:31:20;19.00;;;7.80;;
65658;SDS011;60181;53.258;6.932;2022-12-10T18:35:46;18.80;;;7.90;;
65658;SDS011;60181;53.258;6.932;2022-12-10T18:40:16;18.80;;;7.90;;
65658;SDS011;60181;53.258;6.932;2022-12-10T18:44:42;18.30;;;7.90;;
65658;SDS011;60181;53.258;6.932;2022-12-10T18:49:11;18.30;;;7.90;;
65658;SDS011;60181;53.258;6.932;2022-12-10T18:53:38;19.10;;;8.40;;
65658;SDS011;60181;53.258;6.932;2022-12-10T18:58:07;19.10;;;8.40;;
65658;SDS011;60181;53.258;6.932;2022-12-10T19:02:34;19.70;;;7.70;;
65658;SDS011;60181;53.258;6.932;2022-12-10T19:07:02;19.70;;;7.70;;
65658;SDS011;60181;53.258;6.932;2022-12-10T19:11:30;19.70;;;7.70;;
65658;SDS011;60181;53.258;6.932;2022-12-10T19:15:58;19.70;;;8.00;;
65658;SDS011;60181;53.258;6.932;2022-12-10T19:20:27;19.70;;;8.00;;
65658;SDS011;60181;53.258;6.932;2022-12-10T19:24:54;20.00;;;7.90;;
65658;SDS011;60181;53.258;6.932;2022-12-10T19:29:22;20.00;;;7.90;;
65658;SDS011;60181;53.258;6.932;2022-12-10T19:33:50;20.10;;;8.00;;
65658;SDS011;60181;53.258;6.932;2022-12-10T19:38:18;20.10;;;8.00;;
65658;SDS011;60181;53.258;6.932;2022-12-10T19:42:46;20.40;;;8.60;;
65658;SDS011;60181;53.258;6.932;2022-12-10T19:47:14;20.40;;;8.60;;
65658;SDS011;60181;53.258;6.932;2022-12-10T19:51:42;20.40;;;8.60;;
65658;SDS011;60181;53.258;6.932;2022-12-10T19:56:23;20.40;;;8.40;;
65658;SDS011;60181;53.258;6.932;2022-12-10T20:00:38;20.40;;;8.40;;
65658;SDS011;60181;53.258;6.932;2022-12-10T20:05:06;20.10;;;8.20;;
65658;SDS011;60181;53.258;6.932;2022-12-10T20:09:34;20.10;;;8.20;;
65658;SDS011;60181;53.258;6.932;2022-12-10T20:14:02;22.50;;;8.30;;
65658;SDS011;60181;53.258;6.932;2022-12-10T20:18:30;22.50;;;8.30;;
65658;SDS011;60181;53.258;6.932;2022-12-10T20:22:58;19.70;;;8.10;;
65658;SDS011;60181;53.258;6.932;2022-12-10T20:27:26;19.70;;;8.10;;
65658;SDS011;60181;53.258;6.932;2022-12-10T20:31:55;19.70;;;8.10;;
65658;SDS011;60181;53.258;6.932;2022-12-10T20:36:23;20.40;;;8.10;;
65658;SDS011;60181;53.258;6.932;2022-12-10T20:40:50;20.40;;;8.10;;
65658;SDS011;60181;53.258;6.932;2022-12-10T20:45:18;20.80;;;8.20;;
65658;SDS011;60181;53.258;6.932;2022-12-10T20:49:46;20.80;;;8.20;;
65658;SDS011;60181;53.258;6.932;2022-12-10T20:54:14;22.10;;;8.30;;
65658;SDS011;60181;53.258;6.932;2022-12-10T20:58:42;22.10;;;8.30;;
65658;SDS011;60181;53.258;6.932;2022-12-10T21:03:10;20.50;;;8.00;;
65658;SDS011;60181;53.258;6.932;2022-12-10T21:07:38;20.50;;;8.00;;
65658;SDS011;60181;53.258;6.932;2022-12-10T21:12:06;20.50;;;8.00;;
65658;SDS011;60181;53.258;6.932;2022-12-10T21:16:34;22.50;;;8.10;;
65658;SDS011;60181;53.258;6.932;2022-12-10T21:21:02;22.50;;;8.10;;
65658;SDS011;60181;53.258;6.932;2022-12-10T21:25:30;27.00;;;8.40;;
65658;SDS011;60181;53.258;6.932;2022-12-10T21:29:58;27.00;;;8.40;;
65658;SDS011;60181;53.258;6.932;2022-12-10T21:34:26;21.30;;;8.40;;
65658;SDS011;60181;53.258;6.932;2022-12-10T21:38:54;21.30;;;8.40;;
65658;SDS011;60181;53.258;6.932;2022-12-10T21:43:22;22.50;;;8.50;;
65658;SDS011;60181;53.258;6.932;2022-12-10T21:47:52;22.50;;;8.50;;
65658;SDS011;60181;53.258;6.932;2022-12-10T21:52:18;22.70;;;8.40;;
65658;SDS011;60181;53.258;6.932;2022-12-10T21:56:46;22.70;;;8.40;;
65658;SDS011;60181;53.258;6.932;2022-12-10T22:01:14;22.70;;;8.40;;
65658;SDS011;60181;53.258;6.932;2022-12-10T22:05:42;22.80;;;8.30;;
65658;SDS011;60181;53.258;6.932;2022-12-10T22:10:10;22.80;;;8.30;;
65658;SDS011;60181;53.258;6.932;2022-12-10T22:14:38;20.40;;;8.10;;
65658;SDS011;60181;53.258;6.932;2022-12-10T22:19:06;20.40;;;8.10;;
65658;SDS011;60181;53.258;6.932;2022-12-10T22:23:34;22.50;;;8.40;;
65658;SDS011;60181;53.258;6.932;2022-12-10T22:28:02;22.50;;;8.40;;
65658;SDS011;60181;53.258;6.932;2022-12-10T22:32:30;21.20;;;8.30;;
65658;SDS011;60181;53.258;6.932;2022-12-10T22:36:58;21.20;;;8.30;;
65658;SDS011;60181;53.258;6.932;2022-12-10T22:41:26;21.20;;;8.30;;
65658;SDS011;60181;53.258;6.932;2022-12-10T22:45:54;21.10;;;8.10;;
65658;SDS011;60181;53.258;6.932;2022-12-10T22:50:22;21.10;;;8.10;;
65658;SDS011;60181;53.258;6.932;2022-12-10T22:54:50;22.40;;;8.10;;
65658;SDS011;60181;53.258;6.932;2022-12-10T22:59:18;22.40;;;8.10;;
65658;SDS011;60181;53.258;6.932;2022-12-10T23:03:47;23.00;;;8.50;;
65658;SDS011;60181;53.258;6.932;2022-12-10T23:08:14;23.00;;;8.50;;
65658;SDS011;60181;53.258;6.932;2022-12-10T23:12:42;20.00;;;7.50;;
65658;SDS011;60181;53.258;6.932;2022-12-10T23:17:10;20.00;;;7.50;;
65658;SDS011;60181;53.258;6.932;2022-12-10T23:21:38;20.00;;;7.50;;
65658;SDS011;60181;53.258;6.932;2022-12-10T23:26:06;20.60;;;7.70;;
65658;SDS011;60181;53.258;6.932;2022-12-10T23:30:34;20.60;;;7.70;;
65658;SDS011;60181;53.258;6.932;2022-12-10T23:35:02;20.80;;;8.00;;
65658;SDS011;60181;53.258;6.932;2022-12-10T23:39:30;20.80;;;8.00;;
65658;SDS011;60181;53.258;6.932;2022-12-10T23:43:57;19.70;;;7.80;;
65658;SDS011;60181;53.258;6.932;2022-12-10T23:48:25;19.70;;;7.80;;
65658;SDS011;60181;53.258;6.932;2022-12-10T23:52:53;19.30;;;7.60;;
65658;SDS011;60181;53.258;6.932;2022-12-10T23:57:21;19.30;;;7.60;;
